createdAt,value
2019-05-17T00:01:57.948Z,13.18
2019-05-17T00:04:27.423Z,13.58
2019-05-17T00:07:03.619Z,13.03
2019-05-17T00:09:47.871Z,13.25
2019-05-17T00:12:23.142Z,13.08
2019-05-17T00:14:58.876Z,13.68
2019-05-17T00:17:28.406Z,13.78
2019-05-17T00:20:06.200Z,13.22
2019-05-17T00:22:36.601Z,12.43
2019-05-17T00:25:16.828Z,12.10
2019-05-17T00:27:47.468Z,11.38
2019-05-17T00:30:26.518Z,11.78
2019-05-17T00:33:02.687Z,10.43
2019-05-17T00:35:32.209Z,10.82
2019-05-17T00:38:08.509Z,10.68
2019-05-17T00:40:44.084Z,10.03
2019-05-17T00:43:20.315Z,9.53
2019-05-17T00:45:49.764Z,9.45
2019-05-17T00:48:26.520Z,9.33
2019-05-17T00:51:01.657Z,9.23
2019-05-17T00:53:33.750Z,9.45
2019-05-17T00:56:09.483Z,8.83
2019-05-17T00:58:47.591Z,9.75
2019-05-17T01:01:23.689Z,8.90
2019-05-17T01:04:00.138Z,8.93
2019-05-17T01:06:37.533Z,8.70
2019-05-17T01:09:16.977Z,8.48
2019-05-17T01:11:59.815Z,8.80
2019-05-17T01:14:29.269Z,9.45
2019-05-17T01:17:07.191Z,9.45
2019-05-17T01:19:37.038Z,9.78
2019-05-17T01:22:13.233Z,9.80
2019-05-17T01:24:49.758Z,9.43
2019-05-17T01:27:26.391Z,8.98
2019-05-17T01:30:02.812Z,8.48
2019-05-17T01:32:38.811Z,8.00
2019-05-17T01:35:16.736Z,8.33
2019-05-17T01:37:52.915Z,8.55
2019-05-17T01:40:22.647Z,7.65
2019-05-17T01:42:58.281Z,7.20
2019-05-17T01:45:36.527Z,6.67
2019-05-17T01:48:07.367Z,6.90
2019-05-17T01:50:46.366Z,6.72
2019-05-17T01:53:22.078Z,6.50
2019-05-17T01:55:51.528Z,6.83
2019-05-17T01:58:22.402Z,7.87
2019-05-17T02:00:59.099Z,7.40
2019-05-17T02:03:41.185Z,6.90
2019-05-17T02:06:10.650Z,7.00
2019-05-17T02:08:53.464Z,6.62
2019-05-17T02:11:29.046Z,7.50
2019-05-17T02:14:07.005Z,7.40
2019-05-17T02:16:37.590Z,7.35
2019-05-17T02:19:14.008Z,7.30
2019-05-17T02:21:50.499Z,6.70
2019-05-17T02:24:20.116Z,6.62
2019-05-17T02:26:49.707Z,7.25
2019-05-17T02:29:25.481Z,7.50
2019-05-17T02:31:55.346Z,7.03
2019-05-17T02:34:33.677Z,7.03
2019-05-17T02:37:08.909Z,6.70
2019-05-17T02:39:53.792Z,6.92
2019-05-17T02:42:16.325Z,7.08
2019-05-17T02:44:53.786Z,7.55
2019-05-17T02:47:33.346Z,7.92
2019-05-17T02:50:08.565Z,8.00
2019-05-17T02:52:44.895Z,7.70
2019-05-17T02:55:14.860Z,7.70
2019-05-17T02:57:52.948Z,8.65
2019-05-17T03:00:23.943Z,8.15
2019-05-17T03:03:02.984Z,8.55
2019-05-17T03:05:38.178Z,7.92
2019-05-17T03:08:14.741Z,8.25
2019-05-17T03:10:53.175Z,7.50
2019-05-17T03:13:34.850Z,7.78
2019-05-17T03:16:04.510Z,8.08
2019-05-17T03:18:47.034Z,8.03
2019-05-17T03:21:16.626Z,8.38
2019-05-17T03:23:46.146Z,8.58
2019-05-17T03:26:23.037Z,8.43
2019-05-17T03:28:53.804Z,8.40
2019-05-17T03:31:41.529Z,8.00
2019-05-17T03:34:16.026Z,8.65
2019-05-17T03:36:46.150Z,8.75
2019-05-17T03:39:22.489Z,9.28
2019-05-17T03:41:53.330Z,8.60
2019-05-17T03:44:28.489Z,9.05
2019-05-17T03:46:58.016Z,8.38
2019-05-17T03:49:34.197Z,9.30
2019-05-17T03:52:03.859Z,9.90
2019-05-17T03:54:43.005Z,9.58
2019-05-17T03:57:13.395Z,9.58
2019-05-17T03:59:52.405Z,9.18
2019-05-17T04:02:27.527Z,9.75
2019-05-17T04:04:56.977Z,9.40
2019-05-17T04:07:33.062Z,9.58
2019-05-17T04:10:04.579Z,9.73
2019-05-17T04:12:43.930Z,10.03
2019-05-17T04:15:19.940Z,10.53
2019-05-17T04:17:55.800Z,10.35
2019-05-17T04:20:33.308Z,10.05
2019-05-17T04:23:09.102Z,10.28
2019-05-17T04:25:38.973Z,10.50
2019-05-17T04:28:15.260Z,10.75
2019-05-17T04:30:44.784Z,10.65
2019-05-17T04:33:14.447Z,10.68
2019-05-17T04:36:05.368Z,10.68
2019-05-17T04:38:43.618Z,11.28
2019-05-17T04:41:36.082Z,11.33
2019-05-17T04:43:52.912Z,12.35
2019-05-17T04:46:28.216Z,11.38
2019-05-17T04:48:57.682Z,11.25
2019-05-17T04:51:33.826Z,11.35
2019-05-17T04:54:03.629Z,12.20
2019-05-17T04:56:42.450Z,10.58
2019-05-17T04:59:13.871Z,10.30
2019-05-17T05:01:48.630Z,10.85
2019-05-17T05:04:24.222Z,11.38
2019-05-17T05:06:53.904Z,10.40
2019-05-17T05:09:32.304Z,10.78
2019-05-17T05:12:08.875Z,10.65
2019-05-17T05:14:52.310Z,10.35
2019-05-17T05:17:22.231Z,9.78
2019-05-17T05:19:58.141Z,9.48
2019-05-17T05:22:27.598Z,9.55
2019-05-17T05:25:03.215Z,9.10
2019-05-17T05:27:34.210Z,9.30
2019-05-17T05:30:17.678Z,9.15
2019-05-17T05:32:53.204Z,8.83
2019-05-17T05:35:29.103Z,9.15
2019-05-17T05:38:04.769Z,8.78
2019-05-17T05:40:41.404Z,7.95
2019-05-17T05:43:11.993Z,7.53
2019-05-17T05:45:48.790Z,7.75
2019-05-17T05:48:18.309Z,7.85
2019-05-17T05:50:49.366Z,7.22
2019-05-17T05:53:25.729Z,7.05
2019-05-17T05:55:55.206Z,7.50
2019-05-17T05:58:24.661Z,7.50
2019-05-17T06:01:02.369Z,8.08
2019-05-17T06:03:32.268Z,7.25
2019-05-17T06:06:15.044Z,7.70
2019-05-17T06:08:52.072Z,8.30
2019-05-17T06:11:28.797Z,7.67
2019-05-17T06:14:04.906Z,7.97
2019-05-17T06:16:47.787Z,7.70
2019-05-17T06:19:24.247Z,7.20
2019-05-17T06:21:53.769Z,8.03
2019-05-17T06:24:31.907Z,7.37
2019-05-17T06:27:02.028Z,7.33
2019-05-17T06:29:38.560Z,7.60
2019-05-17T06:32:14.654Z,7.72
2019-05-17T06:34:44.122Z,7.92
2019-05-17T06:37:22.393Z,8.20
2019-05-17T06:39:52.681Z,7.87
2019-05-17T06:42:38.239Z,7.55
2019-05-17T06:45:06.832Z,7.92
2019-05-17T06:47:36.355Z,8.13
2019-05-17T06:50:14.668Z,8.70
2019-05-17T06:52:44.636Z,8.98
2019-05-17T06:55:15.757Z,8.43
2019-05-17T06:57:52.772Z,8.43
2019-05-17T07:00:30.592Z,9.35
2019-05-17T07:03:06.462Z,9.35
2019-05-17T07:05:37.563Z,8.20
2019-05-17T07:08:13.518Z,9.35
2019-05-17T07:10:43.044Z,9.43
2019-05-17T07:13:19.811Z,7.65
2019-05-17T07:16:10.346Z,9.50
2019-05-17T07:18:40.131Z,8.18
2019-05-17T07:21:10.155Z,8.63
2019-05-17T07:23:46.670Z,8.95
2019-05-17T07:26:22.380Z,7.83
2019-05-17T07:28:51.845Z,8.18
2019-05-17T07:31:29.746Z,8.03
2019-05-17T07:33:59.933Z,8.13
2019-05-17T07:36:36.121Z,8.65
2019-05-17T07:39:12.725Z,8.10
2019-05-17T07:41:42.193Z,8.43
2019-05-17T07:44:20.392Z,8.85
2019-05-17T07:46:55.716Z,8.80
2019-05-17T07:49:25.169Z,8.75
2019-05-17T07:52:00.996Z,9.33
2019-05-17T07:54:30.448Z,9.18
2019-05-17T07:57:06.160Z,8.50
2019-05-17T07:59:42.818Z,8.78
2019-05-17T08:02:19.808Z,8.98
2019-05-17T08:04:50.103Z,8.25
2019-05-17T08:07:26.895Z,8.08
2019-05-17T08:10:02.631Z,8.33
2019-05-17T08:12:40.662Z,8.28
2019-05-17T08:15:30.506Z,8.73
2019-05-17T08:18:10.770Z,8.25
2019-05-17T08:20:46.188Z,8.30
2019-05-17T08:23:22.571Z,8.63
2019-05-17T08:25:56.096Z,8.65
2019-05-17T08:28:31.259Z,9.18
2019-05-17T08:31:09.922Z,8.30
2019-05-17T08:33:40.653Z,8.00
2019-05-17T08:36:16.571Z,7.72
2019-05-17T08:38:46.118Z,8.83
2019-05-17T08:41:22.894Z,8.60
2019-05-17T08:43:52.425Z,8.75
2019-05-17T08:46:30.369Z,8.18
2019-05-17T08:49:00.306Z,8.93
2019-05-17T08:51:36.235Z,8.15
2019-05-17T08:54:05.780Z,8.45
2019-05-17T08:56:42.100Z,8.50
2019-05-17T08:59:11.707Z,8.70
2019-05-17T09:01:50.128Z,9.10
2019-05-17T09:04:20.132Z,7.97
2019-05-17T09:06:56.088Z,9.00
2019-05-17T09:09:25.554Z,8.85
2019-05-17T09:12:01.627Z,8.78
2019-05-17T09:14:39.971Z,8.80
2019-05-17T09:17:22.279Z,8.28
2019-05-17T09:19:54.327Z,8.30
2019-05-17T09:22:30.555Z,8.73
2019-05-17T09:25:00.138Z,8.70
2019-05-17T09:27:30.131Z,9.08
2019-05-17T09:30:05.695Z,9.10
2019-05-17T09:32:35.227Z,9.83
2019-05-17T09:35:13.335Z,10.10
2019-05-17T09:37:49.984Z,10.40
2019-05-17T09:40:20.123Z,11.03
2019-05-17T09:42:56.216Z,11.55
2019-05-17T09:45:25.960Z,11.78
2019-05-17T09:48:03.572Z,12.13
2019-05-17T09:50:33.023Z,12.58
2019-05-17T09:53:10.834Z,12.50
2019-05-17T09:55:40.264Z,13.05
2019-05-17T09:58:16.609Z,12.70
2019-05-17T10:00:46.129Z,13.75
2019-05-17T10:03:23.886Z,12.85
2019-05-17T10:06:05.792Z,12.55
2019-05-17T10:08:35.320Z,12.82
2019-05-17T10:11:08.926Z,12.93
2019-05-17T10:13:43.284Z,11.63
2019-05-17T10:16:20.492Z,11.85
2019-05-17T10:18:56.522Z,11.60
2019-05-17T10:21:33.088Z,11.35
2019-05-17T10:24:09.718Z,12.40
2019-05-17T10:26:46.159Z,12.35
2019-05-17T10:29:22.801Z,12.35
2019-05-17T10:31:59.827Z,12.10
2019-05-17T10:34:29.514Z,12.35
2019-05-17T10:36:59.621Z,12.93
2019-05-17T10:39:39.402Z,13.38
2019-05-17T10:42:14.081Z,12.40
2019-05-17T10:44:51.389Z,13.28
2019-05-17T10:47:21.839Z,12.65
2019-05-17T10:49:57.999Z,12.78
2019-05-17T10:52:29.870Z,12.82
2019-05-17T10:55:06.056Z,13.22
2019-05-17T10:57:41.798Z,12.73
2019-05-17T11:00:12.263Z,13.18
2019-05-17T11:02:50.362Z,13.35
2019-05-17T11:05:26.060Z,12.90
2019-05-17T11:08:02.607Z,13.90
2019-05-17T11:10:39.421Z,12.53
2019-05-17T11:13:09.166Z,13.00
2019-05-17T11:15:51.336Z,12.95
2019-05-17T11:18:27.785Z,11.33
2019-05-17T11:21:04.164Z,11.90
2019-05-17T11:23:33.622Z,11.57
2019-05-17T11:26:09.894Z,12.18
2019-05-17T11:28:45.731Z,10.60
2019-05-17T11:31:15.265Z,11.00
2019-05-17T11:33:51.590Z,11.55
2019-05-17T11:36:21.188Z,12.10
2019-05-17T11:38:57.312Z,10.28
2019-05-17T11:41:26.779Z,10.35
2019-05-17T11:44:02.408Z,9.70
2019-05-17T11:46:36.262Z,10.00
2019-05-17T11:49:17.572Z,10.75
2019-05-17T11:51:47.116Z,8.75
2019-05-17T11:54:23.544Z,7.28
2019-05-17T11:56:59.309Z,6.95
2019-05-17T11:59:35.788Z,6.53
2019-05-17T12:02:05.470Z,6.28
2019-05-17T12:04:41.604Z,6.08
2019-05-17T12:07:17.517Z,5.80
2019-05-17T12:09:47.015Z,5.40
2019-05-17T12:12:22.676Z,5.78
2019-05-17T12:14:52.213Z,5.60
2019-05-17T12:17:28.339Z,5.95
2019-05-17T12:20:11.032Z,6.05
2019-05-17T12:22:53.512Z,7.30
2019-05-17T12:25:30.206Z,7.22
2019-05-17T12:27:59.776Z,7.35
2019-05-17T12:30:35.562Z,10.80
2019-05-17T12:33:11.267Z,8.10
2019-05-17T12:35:42.253Z,5.70
2019-05-17T12:38:17.994Z,4.50
2019-05-17T12:40:47.439Z,6.15
2019-05-17T12:43:23.485Z,4.80
2019-05-17T12:46:01.405Z,4.30
2019-05-17T12:48:38.760Z,3.95
2019-05-17T12:51:08.263Z,3.52
2019-05-17T12:53:44.307Z,4.00
2019-05-17T12:56:13.763Z,6.92
2019-05-17T12:58:49.892Z,6.67
2019-05-17T13:01:19.470Z,5.05
2019-05-17T13:03:54.994Z,5.40
2019-05-17T13:06:24.582Z,5.12
2019-05-17T13:09:07.318Z,8.85
2019-05-17T13:11:45.475Z,19.90
2019-05-17T13:14:21.819Z,10.20
2019-05-17T13:17:04.609Z,6.70
2019-05-17T13:19:47.772Z,6.17
2019-05-17T13:22:23.884Z,5.40
2019-05-17T13:25:00.482Z,4.28
2019-05-17T13:27:30.480Z,3.42
2019-05-17T13:30:07.156Z,3.47
2019-05-17T13:32:38.405Z,3.95
2019-05-17T13:35:16.823Z,3.80
2019-05-17T13:37:46.366Z,3.92
2019-05-17T13:40:23.875Z,4.80
2019-05-17T13:42:59.708Z,4.70
2019-05-17T13:45:36.060Z,4.83
2019-05-17T13:48:07.829Z,4.40
2019-05-17T13:50:43.431Z,4.20
2019-05-17T13:53:19.611Z,4.75
2019-05-17T13:55:49.204Z,4.62
2019-05-17T13:58:24.965Z,5.53
2019-05-17T14:01:08.041Z,5.95
2019-05-17T14:03:37.650Z,7.33
2019-05-17T14:06:14.152Z,8.45
2019-05-17T14:08:43.751Z,9.65
2019-05-17T14:11:19.869Z,9.28
2019-05-17T14:13:49.344Z,9.93
2019-05-17T14:16:25.046Z,12.10
2019-05-17T14:18:54.896Z,13.55
2019-05-17T14:21:37.259Z,13.32
2019-05-17T14:24:13.346Z,15.72
2019-05-17T14:26:49.012Z,13.45
2019-05-17T14:29:25.419Z,16.00
2019-05-17T14:31:55.233Z,17.87
2019-05-17T14:34:31.715Z,17.23
2019-05-17T14:37:01.253Z,16.45
2019-05-17T14:39:37.038Z,16.10
2019-05-17T14:42:06.746Z,15.90
2019-05-17T14:44:42.432Z,16.52
2019-05-17T14:47:12.039Z,17.20
2019-05-17T14:49:51.097Z,16.82
2019-05-17T14:52:26.754Z,16.25
2019-05-17T14:54:56.305Z,16.80
2019-05-17T14:57:32.336Z,17.57
2019-05-17T15:00:01.883Z,17.67
2019-05-17T15:02:31.353Z,16.77
2019-05-17T15:05:08.109Z,17.25
2019-05-17T15:07:51.617Z,17.67
2019-05-17T15:10:21.277Z,20.08
2019-05-17T15:13:01.450Z,21.73
2019-05-17T15:15:29.518Z,21.05
2019-05-17T15:18:09.415Z,20.70
2019-05-17T15:20:43.749Z,19.45
2019-05-17T15:23:21.561Z,19.95
2019-05-17T15:26:04.260Z,28.52
2019-05-17T15:28:40.281Z,21.77
2019-05-17T15:31:09.736Z,26.17
2019-05-17T15:33:46.211Z,23.07
2019-05-17T15:36:15.840Z,20.97
2019-05-17T15:38:58.575Z,21.95
2019-05-17T15:41:28.272Z,24.80
2019-05-17T15:44:04.325Z,24.45
2019-05-17T15:46:33.938Z,31.40
2019-05-17T15:49:09.552Z,25.75
2019-05-17T15:51:45.918Z,25.90
2019-05-17T15:59:10.562Z,26.50
2019-05-17T16:01:46.780Z,26.25
2019-05-17T16:04:29.705Z,25.75
2019-05-17T16:07:12.408Z,26.02
2019-05-17T16:09:48.524Z,26.52
2019-05-17T16:12:30.719Z,25.80
2019-05-17T16:15:07.125Z,25.45
2019-05-17T16:17:49.646Z,26.17
2019-05-17T16:20:32.667Z,25.35
2019-05-17T16:23:15.339Z,26.68
2019-05-17T16:25:51.257Z,27.30
2019-05-17T16:28:34.077Z,29.52
2019-05-17T16:31:10.262Z,31.10
2019-05-17T16:33:53.015Z,31.02
2019-05-17T16:36:29.643Z,29.33
2019-05-17T16:39:14.075Z,32.17
2019-05-17T16:41:49.906Z,32.23
2019-05-17T16:44:32.526Z,35.43
2019-05-17T16:47:08.184Z,36.23
2019-05-17T16:49:50.920Z,37.23
2019-05-17T16:52:33.800Z,38.57
2019-05-17T16:55:10.870Z,36.42
2019-05-17T16:57:47.442Z,34.38
2019-05-17T17:00:54.393Z,33.83
2019-05-17T17:03:44.168Z,33.23
2019-05-17T17:06:14.779Z,32.95
2019-05-17T17:08:57.248Z,32.10
2019-05-17T17:11:32.955Z,32.73
2019-05-17T17:14:15.660Z,31.10
2019-05-17T17:16:54.119Z,32.73
2019-05-17T17:19:36.624Z,29.82
2019-05-17T17:22:13.220Z,30.23
2019-05-17T17:24:56.119Z,30.02
2019-05-17T17:27:45.772Z,31.25
2019-05-17T17:30:35.541Z,31.07
2019-05-17T17:33:25.500Z,31.60
2019-05-17T17:36:08.490Z,30.43
2019-05-17T17:38:44.124Z,31.25
2019-05-17T17:41:33.565Z,30.57
2019-05-17T17:44:16.973Z,28.77
2019-05-17T17:46:59.443Z,27.10
2019-05-17T17:49:42.044Z,28.85
2019-05-17T17:52:24.434Z,28.30
2019-05-17T17:55:00.556Z,29.80
2019-05-17T17:57:49.463Z,28.62
2019-05-17T18:00:38.782Z,29.18
2019-05-17T18:03:22.252Z,28.60
2019-05-17T18:06:11.522Z,29.87
2019-05-17T18:09:00.834Z,29.50
2019-05-17T18:11:36.820Z,27.95
2019-05-17T18:14:14.045Z,27.37
2019-05-17T18:16:56.928Z,27.70
2019-05-17T18:19:39.629Z,28.77
2019-05-17T18:22:28.149Z,29.77
2019-05-17T18:25:11.664Z,28.62
2019-05-17T18:27:48.175Z,27.10
2019-05-17T18:30:37.278Z,27.40
2019-05-17T18:33:26.945Z,26.95
2019-05-17T18:36:16.734Z,25.75
2019-05-17T18:39:01.614Z,24.50
2019-05-17T18:41:37.990Z,25.32
2019-05-17T18:44:28.307Z,24.50
2019-05-17T18:47:10.833Z,24.05
2019-05-17T18:50:00.750Z,26.17
2019-05-17T18:52:50.292Z,38.20
2019-05-17T18:55:26.327Z,55.50
2019-05-17T18:58:09.517Z,34.05
2019-05-17T19:00:59.977Z,40.03
2019-05-17T19:03:48.789Z,40.25
2019-05-17T19:06:31.550Z,53.65
2019-05-17T19:09:21.243Z,75.53
2019-05-17T19:12:10.052Z,76.55
2019-05-17T19:15:00.828Z,38.73
2019-05-17T19:17:50.329Z,50.75
2019-05-17T19:20:32.982Z,30.75
2019-05-17T19:23:15.069Z,27.70
2019-05-17T19:26:04.286Z,28.45
2019-05-17T19:28:46.279Z,27.52
2019-05-17T19:31:36.201Z,24.60
2019-05-17T19:34:18.609Z,24.72
2019-05-17T19:36:54.340Z,24.23
2019-05-17T19:39:44.853Z,25.70
2019-05-17T19:42:33.743Z,28.47
2019-05-17T19:45:23.602Z,27.98
2019-05-17T19:48:06.231Z,28.87
2019-05-17T19:50:42.678Z,30.27
2019-05-17T19:53:32.513Z,28.45
2019-05-17T19:56:15.637Z,22.93
2019-05-17T19:58:58.527Z,20.55
2019-05-17T20:01:41.100Z,23.37
2019-05-17T20:04:29.714Z,29.92
2019-05-17T20:07:12.350Z,31.12
2019-05-17T20:09:48.135Z,27.98
2019-05-17T20:12:30.634Z,30.32
2019-05-17T20:15:17.754Z,23.20
2019-05-17T20:18:00.320Z,24.43
2019-05-17T20:20:43.083Z,23.22
2019-05-17T20:23:19.210Z,23.23
2019-05-17T20:26:01.625Z,21.70
2019-05-17T20:28:51.600Z,22.73
2019-05-17T20:31:27.682Z,22.10
2019-05-17T20:34:10.821Z,22.10
2019-05-17T20:36:59.699Z,23.20
2019-05-17T20:39:42.997Z,25.32
2019-05-17T20:42:19.763Z,24.63
2019-05-17T20:45:02.745Z,23.83
2019-05-17T20:47:45.278Z,23.98
2019-05-17T20:50:22.339Z,22.15
2019-05-17T20:53:17.854Z,21.33
2019-05-17T20:55:50.007Z,20.02
2019-05-17T20:58:32.364Z,18.50
2019-05-17T21:01:22.657Z,19.87
2019-05-17T21:04:04.929Z,19.52
2019-05-17T21:06:48.136Z,18.85
2019-05-17T21:09:36.988Z,18.07
2019-05-17T21:12:19.449Z,18.57
2019-05-17T21:15:02.732Z,18.70
2019-05-17T21:17:52.243Z,17.70
2019-05-17T21:20:41.501Z,19.55
2019-05-17T21:23:30.860Z,21.42
2019-05-17T21:26:12.588Z,19.98
2019-05-17T21:28:55.597Z,21.30
2019-05-17T21:31:44.464Z,21.75
2019-05-17T21:34:33.601Z,19.30
2019-05-17T21:37:16.355Z,18.77
2019-05-17T21:39:59.920Z,19.33
2019-05-17T21:42:42.699Z,23.05
2019-05-17T21:45:19.672Z,22.77
2019-05-17T21:48:08.993Z,21.73
2019-05-17T21:50:58.997Z,21.02
2019-05-17T21:53:34.824Z,18.87
2019-05-17T21:56:17.285Z,22.10
2019-05-17T21:58:53.163Z,23.12
2019-05-17T22:01:39.175Z,23.02
2019-05-17T22:04:21.910Z,21.35
2019-05-17T22:07:04.496Z,23.07
2019-05-17T22:09:40.567Z,20.25
2019-05-17T22:12:23.313Z,20.85
2019-05-17T22:15:13.407Z,21.63
2019-05-17T22:17:55.623Z,23.45
2019-05-17T22:20:44.240Z,21.95
2019-05-17T22:23:27.531Z,21.75
2019-05-17T22:26:09.288Z,21.05
2019-05-17T22:28:58.746Z,21.30
2019-05-17T22:31:48.081Z,20.57
2019-05-17T22:34:23.913Z,17.77
2019-05-17T22:37:07.026Z,16.35
2019-05-17T22:39:50.316Z,17.85
2019-05-17T22:42:33.225Z,16.57
2019-05-17T22:45:15.815Z,17.35
2019-05-17T22:47:52.299Z,17.15
2019-05-17T22:50:28.594Z,16.02
2019-05-17T22:53:05.247Z,17.82
2019-05-17T22:55:47.790Z,16.60
2019-05-17T22:58:24.272Z,15.30
2019-05-17T23:01:06.126Z,15.88
2019-05-17T23:03:49.344Z,14.43
2019-05-17T23:06:32.407Z,15.45
2019-05-17T23:09:15.149Z,15.03
2019-05-17T23:12:04.081Z,15.00
2019-05-17T23:14:52.970Z,15.80
2019-05-17T23:17:42.195Z,17.27
2019-05-17T23:20:24.984Z,16.82
2019-05-17T23:23:01.015Z,16.40
2019-05-17T23:25:37.144Z,15.98
2019-05-17T23:28:13.616Z,16.27
2019-05-17T23:30:49.700Z,15.90
2019-05-17T23:33:19.222Z,15.13
2019-05-17T23:35:55.051Z,15.95
2019-05-17T23:38:24.583Z,14.87
2019-05-17T23:41:00.705Z,15.10
2019-05-17T23:43:43.023Z,16.25
2019-05-17T23:46:19.491Z,16.48
2019-05-17T23:48:55.240Z,15.80
2019-05-17T23:51:38.113Z,15.93
2019-05-17T23:54:27.770Z,17.73
2019-05-17T23:57:10.372Z,17.52
2019-05-17T23:59:59.865Z,15.53
